Strona główna
METAR-TAF:

METAR-TAF

Lotnisko :

Port lotniczy Dżakarta-Halim Perdanakusuma

Dżakarta Wschodnia, Indonezja

Szerokość geograficzna: 06-15-59S, Długość geograficzna: 106-53-28E, wysokość: 25 m

Aktualna obserwacja pogody

Raport powstał 21 godziny i 17 minut temu, godzina 00:30 UTC
Cisza
Temperatura 28°C
Wilgotność 84%
Ciśnienie 1012 hPa
Widzialność: 3000 m
zmętnienie

METAR: WIHH 290030Z 00000KT 3000 HZ NSC 28/25 Q1012 NOSIG

czas: 04:47 (21:47 UTC)

Prognoza

Raport powstał 4 godziny i 47 minut temu, godzina 17:00 UTC
Prognoza ważna od 29 godzina 18 UTC do 30 godzina 18 UTC
Wiatr 5 kt od południowo-południowy zachód
Widzialność: 5000 m
Mało chmury na wysokości 2200 ft
zmętnienie
Stopniowe zmiany
od 30 godzina 01 UTC do 30 godzina 03 UTC
Wiatr 10 kt od północny wschód

TAF: WIHH 291700Z 2918/3018 20005KT 5000 HZ FEW022 BECMG 3001/3003 05010KT

Obserwacja i prognoza pogody dla ponad 4000 lotnisk (raport METAR i TAF).

Dostępne stacje oznaczono żółtymi i czerwonymi punktami na mapie.

Najedź kursorem aby zobaczyć nazwę stacji.

Kliknij aby zobaczyć obserwacje i prognozy pogody.

Aby zmienić mapę: kliknij na zielony przycisk z czarnym krzyżykiem, aby powiększyć; na zielony przycisk z myślnikiem, aby pomniejszyć; na zielone strzałki, aby przejść do map sąsiednich.


METAR-TAF: